Time;durP1;ratioP1;P1;durP2;ratioP2;P2;SDS_P1;SDS_P2;PMS_P1;PMS_P2;Temp;Humidity;BMP_temperature;BMP_pressure;BME280_temperature;BME280_humidity;BME280_pressure;Samples;Min_cycle;Max_cycle;Signal;HPM_P1;HPM_P2
2022/12/06 00:00:45;;;;;;;2.20;2.00;;;7.30;88.70;;;;;;4956961;28;20187;-77
2022/12/06 00:03:10;;;;;;;1.90;1.80;;;7.30;88.60;;;;;;4960344;28;20681;-77
2022/12/06 00:05:36;;;;;;;2.57;1.87;;;7.30;88.60;;;;;;4958867;28;20186;-76
2022/12/06 00:08:02;;;;;;;2.17;1.90;;;7.20;88.70;;;;;;4956241;28;20899;-76
2022/12/06 00:10:27;;;;;;;2.77;2.53;;;7.20;88.50;;;;;;4955293;28;20710;-76
2022/12/06 00:12:53;;;;;;;2.70;2.40;;;7.20;88.40;;;;;;4956864;28;20202;-76
2022/12/06 00:15:19;;;;;;;3.23;2.30;;;7.20;88.50;;;;;;4955497;28;20187;-77
2022/12/06 00:17:44;;;;;;;2.67;2.47;;;7.20;88.70;;;;;;4953068;28;20179;-79
2022/12/06 00:20:10;;;;;;;2.30;1.77;;;7.20;88.80;;;;;;4955106;28;20282;-77
2022/12/06 00:22:36;;;;;;;3.07;2.27;;;7.20;88.90;;;;;;4957019;28;20193;-78
2022/12/06 00:25:02;;;;;;;3.40;2.10;;;7.30;88.60;;;;;;4953835;28;20583;-77
2022/12/06 00:27:28;;;;;;;3.30;2.23;;;7.30;88.40;;;;;;4952814;28;20195;-78
2022/12/06 00:29:53;;;;;;;3.47;3.17;;;7.30;88.10;;;;;;4951934;28;20183;-76
2022/12/06 00:32:19;;;;;;;2.53;2.27;;;7.30;88.00;;;;;;4952337;28;20215;-78
2022/12/06 00:34:45;;;;;;;1.80;1.70;;;7.30;88.20;;;;;;4954793;28;20606;-76
2022/12/06 00:37:10;;;;;;;2.50;2.10;;;7.30;88.30;;;;;;4955933;28;20301;-79
2022/12/06 00:39:36;;;;;;;2.00;1.90;;;7.20;88.50;;;;;;4952281;28;20753;-76
2022/12/06 00:42:02;;;;;;;2.60;2.47;;;7.20;88.60;;;;;;4955457;28;20731;-77
2022/12/06 00:44:27;;;;;;;2.23;1.97;;;7.20;88.50;;;;;;4950137;28;20273;-77
2022/12/06 00:46:53;;;;;;;2.90;2.50;;;7.20;88.70;;;;;;4954108;28;20560;-77
2022/12/06 00:49:18;;;;;;;1.57;1.47;;;7.30;88.70;;;;;;4951219;28;20194;-76
2022/12/06 00:51:44;;;;;;;2.13;1.97;;;7.30;88.80;;;;;;4954057;28;20187;-77
2022/12/06 00:54:13;;;;;;;3.13;1.67;;;7.30;88.60;;;;;;4953753;28;20281;-78
2022/12/06 00:56:38;;;;;;;2.70;1.80;;;7.40;88.60;;;;;;4955147;28;20221;-78
2022/12/06 00:59:05;;;;;;;2.73;2.47;;;7.40;88.50;;;;;;4955997;28;20651;-77
2022/12/06 01:01:32;;;;;;;4.80;2.60;;;7.40;88.50;;;;;;4955592;28;20343;-77
2022/12/06 01:04:01;;;;;;;1.40;1.40;;;7.40;88.40;;;;;;4953663;28;20222;-76
2022/12/06 01:06:29;;;;;;;2.20;2.00;;;7.50;88.30;;;;;;4952463;28;20277;-78
2022/12/06 01:08:57;;;;;;;2.20;1.97;;;7.50;88.20;;;;;;4948720;28;20193;-78
2022/12/06 01:11:23;;;;;;;1.67;1.57;;;7.50;88.20;;;;;;4957265;28;20182;-78
2022/12/06 01:13:50;;;;;;;2.73;1.93;;;7.50;88.10;;;;;;4956843;28;20295;-77
2022/12/06 01:16:20;;;;;;;1.73;1.60;;;7.50;88.10;;;;;;4956361;28;20719;-78
2022/12/06 01:18:46;;;;;;;1.37;1.27;;;7.50;88.20;;;;;;4955214;28;20277;-76
2022/12/06 01:21:15;;;;;;;2.43;2.07;;;7.60;88.10;;;;;;4956295;28;20689;-77
2022/12/06 01:23:41;;;;;;;1.57;1.50;;;7.60;88.10;;;;;;4953251;28;20187;-77
2022/12/06 01:26:17;;;;;;;2.17;1.97;;;7.60;88.10;;;;;;4951872;28;20631;-77
2022/12/06 01:28:43;;;;;;;2.10;2.00;;;7.60;88.10;;;;;;4947080;28;20197;-76
2022/12/06 01:31:09;;;;;;;1.80;1.70;;;7.60;88.10;;;;;;4949792;28;20183;-77
2022/12/06 01:33:35;;;;;;;1.57;1.47;;;7.70;88.10;;;;;;4954107;28;20718;-76
2022/12/06 01:36:01;;;;;;;2.40;2.27;;;7.70;88.00;;;;;;4950448;28;20187;-77
2022/12/06 01:38:26;;;;;;;1.57;1.47;;;7.70;87.90;;;;;;4956290;28;20189;-76
2022/12/06 01:40:52;;;;;;;1.50;1.43;;;7.70;87.80;;;;;;4952995;28;20250;-76
2022/12/06 01:43:33;;;;;;;1.70;1.60;;;7.70;87.60;;;;;;4950690;28;20849;-76
2022/12/06 01:46:12;;;;;;;1.33;1.23;;;7.80;87.50;;;;;;4952884;28;20194;-77
2022/12/06 01:48:39;;;;;;;2.47;1.50;;;7.80;87.60;;;;;;4956516;28;20316;-77
2022/12/06 01:51:06;;;;;;;2.50;1.63;;;7.80;87.60;;;;;;4949471;28;20189;-77
2022/12/06 01:53:33;;;;;;;1.50;1.43;;;7.70;87.60;;;;;;4950297;28;20211;-77
2022/12/06 01:55:59;;;;;;;2.20;2.00;;;7.80;87.60;;;;;;4947546;28;20677;-77
2022/12/06 01:58:29;;;;;;;2.00;1.90;;;7.80;87.50;;;;;;4947744;28;20283;-77
2022/12/06 02:00:55;;;;;;;2.50;1.80;;;7.70;87.50;;;;;;4953476;28;20637;-77
2022/12/06 02:03:24;;;;;;;1.30;1.30;;;7.80;87.20;;;;;;4955244;28;20184;-77
2022/12/06 02:05:51;;;;;;;1.67;1.57;;;7.70;87.50;;;;;;4954776;28;20210;-77
2022/12/06 02:08:19;;;;;;;2.10;1.57;;;7.70;87.50;;;;;;4954814;28;20179;-77
2022/12/06 02:10:44;;;;;;;1.70;1.60;;;7.70;87.50;;;;;;4933686;28;20234;-77
2022/12/06 02:13:10;;;;;;;1.73;1.63;;;7.70;87.60;;;;;;4951841;28;20211;-76
2022/12/06 02:15:46;;;;;;;2.30;2.00;;;7.80;87.60;;;;;;4951675;28;20244;-77
2022/12/06 02:18:19;;;;;;;1.63;1.57;;;7.80;87.50;;;;;;4951031;28;20182;-77
2022/12/06 02:21:12;;;;;;;1.17;1.17;;;7.80;87.20;;;;;;4948562;28;20235;-78
2022/12/06 02:23:54;;;;;;;1.80;1.80;;;7.80;87.20;;;;;;4953386;28;20186;-78
2022/12/06 02:26:29;;;;;;;1.40;1.30;;;7.80;87.10;;;;;;4948624;28;20747;-77
2022/12/06 02:29:01;;;;;;;2.73;1.83;;;7.70;87.00;;;;;;4948869;28;20213;-77
2022/12/06 02:31:38;;;;;;;1.70;1.57;;;7.70;87.10;;;;;;4949575;28;20484;-77
2022/12/06 02:34:38;;;;;;;1.87;1.30;;;7.70;87.10;;;;;;4949465;28;20219;-76
2022/12/06 02:37:12;;;;;;;2.20;1.53;;;7.70;87.00;;;;;;4897632;29;20197;-76
2022/12/06 02:39:54;;;;;;;1.53;1.43;;;7.70;87.20;;;;;;4898297;29;20239;-78
2022/12/06 02:42:25;;;;;;;2.00;1.90;;;7.70;87.00;;;;;;4901201;29;20197;-77
2022/12/06 02:44:54;;;;;;;1.70;1.60;;;7.70;87.20;;;;;;4898050;29;20565;-78
2022/12/06 02:47:24;;;;;;;2.07;1.93;;;7.70;87.10;;;;;;4900747;29;20212;-77
2022/12/06 02:49:53;;;;;;;2.37;1.73;;;7.70;87.10;;;;;;4902341;29;20216;-77
2022/12/06 02:52:25;;;;;;;1.48;1.38;;;7.70;87.00;;;;;;4903157;29;20208;-76
2022/12/06 02:54:56;;;;;;;2.97;2.10;;;7.70;87.00;;;;;;4898937;29;20204;-78
2022/12/06 02:57:41;;;;;;;2.87;1.77;;;7.70;86.80;;;;;;4900325;29;20717;-77
2022/12/06 03:00:37;;;;;;;1.70;1.57;;;7.70;86.70;;;;;;4898787;29;20185;-78
2022/12/06 03:03:38;;;;;;;1.77;1.13;;;7.70;86.80;;;;;;4896632;29;20196;-76
2022/12/06 03:06:41;;;;;;;2.00;1.80;;;7.70;86.90;;;;;;4895744;29;20719;-78
2022/12/06 03:09:19;;;;;;;2.20;1.93;;;7.70;86.90;;;;;;4895242;29;20184;-78
2022/12/06 03:12:05;;;;;;;1.40;1.30;;;7.70;86.90;;;;;;4900808;29;20192;-77
2022/12/06 03:14:59;;;;;;;3.57;1.73;;;7.70;86.90;;;;;;4933564;28;20658;-77
2022/12/06 03:17:52;;;;;;;1.77;1.53;;;7.70;86.90;;;;;;4952111;28;20198;-76
2022/12/06 03:20:55;;;;;;;1.80;1.70;;;7.70;86.90;;;;;;4949413;28;20187;-76
2022/12/06 03:23:26;;;;;;;1.87;1.77;;;7.70;86.90;;;;;;4954223;28;20189;-77
2022/12/06 03:25:57;;;;;;;2.30;2.20;;;7.60;87.10;;;;;;4948395;28;20672;-76
2022/12/06 03:28:23;;;;;;;2.20;2.10;;;7.60;87.10;;;;;;4951187;28;20198;-77
2022/12/06 03:30:52;;;;;;;2.47;2.03;;;7.60;87.10;;;;;;4954162;28;20194;-77
2022/12/06 03:33:21;;;;;;;2.30;2.20;;;7.60;87.10;;;;;;4949591;28;20214;-76
2022/12/06 03:35:51;;;;;;;2.80;1.37;;;7.60;87.20;;;;;;4955447;28;20687;-76
2022/12/06 03:38:40;;;;;;;2.67;1.53;;;7.60;87.40;;;;;;4951906;28;20570;-76
2022/12/06 03:41:07;;;;;;;1.07;1.07;;;7.60;87.10;;;;;;4886708;29;20211;-77
2022/12/06 03:43:33;;;;;;;3.07;1.53;;;7.60;87.10;;;;;;4885389;29;20609;-77
2022/12/06 03:46:11;;;;;;;5.67;1.77;;;7.60;87.20;;;;;;4885223;29;20293;-78
2022/12/06 03:48:42;;;;;;;2.97;1.37;;;7.60;87.20;;;;;;4885753;29;20189;-77
2022/12/06 03:51:13;;;;;;;1.70;1.20;;;7.60;87.40;;;;;;4885509;29;20193;-77
2022/12/06 03:53:52;;;;;;;1.13;1.13;;;7.60;87.40;;;;;;4886391;29;20221;-78
2022/12/06 03:56:19;;;;;;;2.60;1.60;;;7.60;87.00;;;;;;4886180;29;20184;-77
2022/12/06 03:58:45;;;;;;;1.47;1.37;;;7.60;86.90;;;;;;4885812;29;20205;-75
2022/12/06 04:01:11;;;;;;;1.13;1.13;;;7.50;87.20;;;;;;4887716;29;20189;-76
2022/12/06 04:03:37;;;;;;;1.70;1.17;;;7.50;87.30;;;;;;4888098;29;20201;-79
2022/12/06 04:06:05;;;;;;;1.07;0.90;;;7.50;87.20;;;;;;4884326;29;20212;-77
2022/12/06 04:08:31;;;;;;;1.07;1.07;;;7.50;87.30;;;;;;4889043;29;20201;-77
2022/12/06 04:10:57;;;;;;;1.40;1.30;;;7.50;87.40;;;;;;4887624;29;20609;-76
2022/12/06 04:13:23;;;;;;;3.13;1.13;;;7.50;87.40;;;;;;4888286;29;20217;-76
2022/12/06 04:15:48;;;;;;;1.40;1.30;;;7.50;87.50;;;;;;4887007;29;20197;-78
2022/12/06 04:18:17;;;;;;;1.80;1.40;;;7.50;87.40;;;;;;4925300;28;20190;-78
2022/12/06 04:23:50;;;;;;;1.23;1.13;;;7.50;87.40;;;;;;4952544;28;20330;-76
2022/12/06 04:26:20;;;;;;;2.00;0.83;;;7.50;87.50;;;;;;4952872;28;20219;-76
2022/12/06 04:39:44;;;;;;;2.67;1.43;;;7.60;87.50;;;;;;4955655;28;20768;-77
2022/12/06 04:44:55;;;;;;;1.13;1.13;;;7.60;87.50;;;;;;4946540;28;20688;-78
2022/12/06 04:47:21;;;;;;;1.30;1.20;;;7.70;87.60;;;;;;4955353;28;20183;-77
2022/12/06 04:49:47;;;;;;;1.60;1.40;;;7.70;87.50;;;;;;4951841;28;20189;-78
2022/12/06 04:52:13;;;;;;;1.43;1.33;;;7.70;87.50;;;;;;4936607;28;20183;-77
2022/12/06 04:54:39;;;;;;;1.67;1.57;;;7.70;87.50;;;;;;4953407;28;20206;-77
2022/12/06 04:57:09;;;;;;;2.70;0.93;;;7.70;87.50;;;;;;4949087;28;20233;-77
2022/12/06 04:59:37;;;;;;;1.77;1.67;;;7.70;87.50;;;;;;4948688;28;20189;-78
2022/12/06 05:02:04;;;;;;;2.83;1.87;;;7.70;87.50;;;;;;4949587;28;20179;-77
2022/12/06 05:04:30;;;;;;;1.80;1.27;;;7.80;87.40;;;;;;4951488;28;20824;-76
2022/12/06 05:06:56;;;;;;;2.30;1.83;;;7.80;87.50;;;;;;4951395;28;20194;-76
2022/12/06 05:09:22;;;;;;;3.27;1.67;;;7.80;87.50;;;;;;4952960;28;20178;-76
2022/12/06 05:11:47;;;;;;;1.97;1.63;;;7.80;87.50;;;;;;4950565;28;20633;-76
2022/12/06 05:14:13;;;;;;;2.03;1.90;;;7.80;87.50;;;;;;4950258;28;20263;-76
2022/12/06 05:16:39;;;;;;;1.57;1.47;;;7.80;87.40;;;;;;4955059;28;20183;-76
2022/12/06 05:19:05;;;;;;;2.10;1.77;;;7.80;87.40;;;;;;4954165;28;20242;-76
2022/12/06 05:21:30;;;;;;;1.20;1.20;;;7.80;87.50;;;;;;4949404;28;20192;-78
2022/12/06 05:23:56;;;;;;;1.43;1.37;;;7.80;87.40;;;;;;4954682;28;20214;-76
2022/12/06 05:26:27;;;;;;;1.13;1.13;;;7.80;87.40;;;;;;4952550;28;20565;-75
2022/12/06 05:28:54;;;;;;;1.60;1.50;;;7.80;87.40;;;;;;4953118;28;20183;-74
2022/12/06 05:31:21;;;;;;;1.37;1.33;;;7.80;87.20;;;;;;4948446;28;20179;-75
2022/12/06 05:33:47;;;;;;;2.03;1.93;;;7.70;87.20;;;;;;4946777;28;20981;-76
2022/12/06 05:36:19;;;;;;;3.47;1.80;;;7.70;87.20;;;;;;4953808;28;20265;-76
2022/12/06 05:38:46;;;;;;;1.43;1.33;;;7.70;87.20;;;;;;4950548;28;20221;-76
2022/12/06 05:41:12;;;;;;;1.93;1.83;;;7.70;87.20;;;;;;4955259;28;20187;-76
2022/12/06 05:43:38;;;;;;;1.30;1.20;;;7.70;87.40;;;;;;4948300;28;20186;-76
2022/12/06 05:46:04;;;;;;;2.03;1.80;;;7.70;87.40;;;;;;4953460;28;20193;-76
2022/12/06 05:48:30;;;;;;;1.47;1.37;;;7.70;87.20;;;;;;4947185;28;20183;-76
2022/12/06 05:50:56;;;;;;;1.23;1.23;;;7.70;87.20;;;;;;4948449;28;20194;-76
2022/12/06 05:53:22;;;;;;;1.60;0.97;;;7.70;87.20;;;;;;4949179;28;20214;-78
2022/12/06 05:55:48;;;;;;;0.90;0.90;;;7.70;87.40;;;;;;4955486;28;20195;-76
2022/12/06 05:58:14;;;;;;;1.53;1.43;;;7.70;87.60;;;;;;4949952;28;20195;-76
2022/12/06 06:00:41;;;;;;;1.63;1.53;;;7.60;87.50;;;;;;4948855;28;20187;-77
2022/12/06 06:03:06;;;;;;;1.27;1.17;;;7.70;87.50;;;;;;4953193;28;20190;-77
2022/12/06 06:05:32;;;;;;;1.63;1.53;;;7.70;87.50;;;;;;4951106;28;20191;-77
2022/12/06 06:07:58;;;;;;;1.83;1.63;;;7.70;87.60;;;;;;4954652;28;20201;-77
2022/12/06 06:10:24;;;;;;;3.53;1.80;;;7.70;87.60;;;;;;4950390;28;20179;-77
2022/12/06 06:12:50;;;;;;;2.60;1.57;;;7.70;87.60;;;;;;4951774;28;20322;-77
2022/12/06 06:15:16;;;;;;;2.23;2.00;;;7.80;87.60;;;;;;4951341;28;20282;-77
2022/12/06 06:17:42;;;;;;;2.97;1.63;;;7.70;87.70;;;;;;4948269;28;20183;-77
2022/12/06 06:20:12;;;;;;;1.60;1.47;;;7.70;87.60;;;;;;4949436;28;20256;-77
2022/12/06 06:22:40;;;;;;;1.37;1.33;;;7.70;87.70;;;;;;4951149;28;20183;-77
2022/12/06 06:25:06;;;;;;;1.80;1.70;;;7.70;87.80;;;;;;4952990;28;20283;-76
2022/12/06 06:27:35;;;;;;;1.47;1.47;;;7.80;87.70;;;;;;4950187;28;20739;-76
2022/12/06 06:30:03;;;;;;;5.63;1.40;;;7.80;87.40;;;;;;4953764;28;20874;-77
2022/12/06 06:32:28;;;;;;;2.77;1.50;;;7.80;87.40;;;;;;4952494;28;20725;-77
2022/12/06 06:34:54;;;;;;;3.53;1.90;;;7.80;87.20;;;;;;4948792;28;20190;-76
2022/12/06 06:37:20;;;;;;;1.50;1.40;;;7.80;87.20;;;;;;4949244;28;20277;-77
2022/12/06 06:39:45;;;;;;;1.30;1.30;;;7.80;87.40;;;;;;4948827;28;20191;-77
2022/12/06 06:42:11;;;;;;;1.63;1.13;;;7.80;87.50;;;;;;4951603;28;21169;-77
2022/12/06 06:44:36;;;;;;;1.47;1.37;;;7.80;87.50;;;;;;4952843;28;20182;-77
2022/12/06 06:47:02;;;;;;;1.27;1.10;;;7.80;87.30;;;;;;4951824;28;20183;-77
2022/12/06 06:49:28;;;;;;;2.73;1.40;;;7.90;87.30;;;;;;4951282;28;20245;-78
2022/12/06 06:51:53;;;;;;;1.53;1.53;;;7.90;87.40;;;;;;4947906;28;20205;-78
2022/12/06 06:54:19;;;;;;;2.83;1.23;;;7.90;87.50;;;;;;4952702;28;20214;-77
2022/12/06 06:56:45;;;;;;;1.43;1.40;;;7.90;87.20;;;;;;4949775;28;20768;-77
2022/12/06 06:59:10;;;;;;;2.73;1.10;;;7.90;87.30;;;;;;4951024;28;20925;-77
2022/12/06 07:01:37;;;;;;;2.03;1.83;;;8.00;87.20;;;;;;4953754;28;20274;-78
2022/12/06 07:04:03;;;;;;;1.20;1.20;;;8.00;87.30;;;;;;4950036;28;20213;-77
2022/12/06 07:06:28;;;;;;;1.50;1.40;;;8.00;87.50;;;;;;4953255;28;20230;-77
2022/12/06 07:08:54;;;;;;;1.40;1.40;;;8.00;87.50;;;;;;4953140;28;20988;-78
2022/12/06 07:11:20;;;;;;;0.90;0.90;;;8.10;87.50;;;;;;4952155;28;20218;-77
2022/12/06 07:13:45;;;;;;;2.80;1.40;;;8.20;87.50;;;;;;4953735;28;20334;-77
2022/12/06 07:16:14;;;;;;;3.90;1.77;;;8.20;87.20;;;;;;4950343;28;20254;-78
2022/12/06 07:18:41;;;;;;;0.90;0.90;;;8.30;87.10;;;;;;4950119;28;20176;-77
2022/12/06 07:21:09;;;;;;;2.05;1.50;;;8.30;87.10;;;;;;4947578;28;20182;-77
2022/12/06 07:23:36;;;;;;;2.00;1.90;;;8.30;87.10;;;;;;4950927;28;20253;-77
2022/12/06 07:26:05;;;;;;;2.57;1.77;;;8.30;86.70;;;;;;4948661;28;20193;-77
2022/12/06 07:28:32;;;;;;;1.57;1.47;;;8.40;86.80;;;;;;4945924;28;20191;-77
2022/12/06 07:31:05;;;;;;;2.93;1.57;;;8.40;86.70;;;;;;4949868;28;20270;-77
2022/12/06 07:33:31;;;;;;;1.70;1.60;;;8.40;86.90;;;;;;4952237;28;20209;-77
2022/12/06 07:35:57;;;;;;;1.90;1.53;;;;;;;;;;4956758;28;20681;-77
2022/12/06 07:38:23;;;;;;;3.90;1.48;;;8.50;87.20;;;;;;4957047;28;20190;-77
2022/12/06 07:40:48;;;;;;;1.57;1.33;;;8.60;87.10;;;;;;4961957;28;20186;-77
2022/12/06 07:45:58;;;;;;;1.98;1.88;;;8.70;86.60;;;;;;4953070;28;20202;-77
2022/12/06 07:48:24;;;;;;;3.00;1.67;;;8.70;86.50;;;;;;4956234;28;20195;-76
2022/12/06 07:50:51;;;;;;;2.78;2.15;;;8.80;86.70;;;;;;4957606;28;20188;-77
2022/12/06 07:53:17;;;;;;;3.45;1.70;;;8.90;86.60;;;;;;4935947;28;20218;-77
2022/12/06 07:55:42;;;;;;;1.38;1.30;;;8.90;86.30;;;;;;4956324;28;20213;-77
2022/12/06 07:58:08;;;;;;;2.53;1.67;;;8.90;86.00;;;;;;4954122;28;20261;-76
2022/12/06 08:00:36;;;;;;;1.92;1.83;;;9.00;86.30;;;;;;4950017;28;20175;-77
2022/12/06 08:03:02;;;;;;;2.03;1.77;;;9.00;85.80;;;;;;4954491;28;20195;-78
2022/12/06 08:05:27;;;;;;;2.22;1.33;;;9.10;85.00;;;;;;4953998;28;20198;-77
2022/12/06 08:07:53;;;;;;;1.65;1.52;;;9.10;85.40;;;;;;4957634;28;20189;-78
2022/12/06 08:10:19;;;;;;;3.72;1.52;;;;;;;;;;4953394;28;20191;-75
2022/12/06 08:12:45;;;;;;;1.93;1.73;;;9.10;85.20;;;;;;4952866;28;20215;-76
2022/12/06 08:15:13;;;;;;;5.22;1.80;;;9.10;85.40;;;;;;4947011;28;20187;-75
2022/12/06 08:17:40;;;;;;;5.40;1.92;;;9.10;84.60;;;;;;4941918;28;20187;-75
2022/12/06 08:20:08;;;;;;;5.07;2.30;;;9.00;84.50;;;;;;4949798;28;20197;-74
2022/12/06 08:22:34;;;;;;;1.95;1.85;;;8.90;85.20;;;;;;4947121;28;20308;-75
2022/12/06 08:25:00;;;;;;;6.15;1.75;;;;;;;;;;4954188;28;20187;-75
2022/12/06 08:27:26;;;;;;;8.68;2.00;;;9.00;85.40;;;;;;4951994;28;20638;-76
2022/12/06 08:29:52;;;;;;;3.15;2.17;;;9.10;85.40;;;;;;4947063;28;20193;-75
2022/12/06 08:32:18;;;;;;;2.45;2.25;;;9.10;85.50;;;;;;4937258;28;20187;-74
2022/12/06 08:34:43;;;;;;;3.67;2.72;;;9.20;85.60;;;;;;4946709;28;20582;-75
2022/12/06 08:37:10;;;;;;;2.42;2.20;;;9.30;85.30;;;;;;4950470;28;20187;-76
2022/12/06 08:39:36;;;;;;;3.25;2.58;;;9.30;85.30;;;;;;4952547;28;20189;-74
2022/12/06 08:42:05;;;;;;;1.98;1.88;;;9.40;84.80;;;;;;4951328;28;20983;-74
2022/12/06 08:44:31;;;;;;;6.30;2.08;;;9.40;84.80;;;;;;4947410;28;20200;-76
2022/12/06 08:46:58;;;;;;;1.95;1.63;;;9.40;84.40;;;;;;4950576;28;20294;-76
2022/12/06 08:49:26;;;;;;;2.55;2.35;;;9.40;84.00;;;;;;4947493;28;20186;-76
2022/12/06 08:51:52;;;;;;;2.30;2.05;;;9.40;84.00;;;;;;4951554;28;20187;-75
2022/12/06 08:54:21;;;;;;;2.58;2.38;;;9.40;84.20;;;;;;4931867;28;20214;-75
2022/12/06 08:56:47;;;;;;;8.27;1.70;;;9.40;84.50;;;;;;4942069;28;20277;-76
2022/12/06 08:59:14;;;;;;;2.45;2.22;;;9.50;85.00;;;;;;4948494;28;20281;-75
2022/12/06 09:01:40;;;;;;;3.10;1.60;;;9.50;84.80;;;;;;4952126;28;20202;-75
2022/12/06 09:04:08;;;;;;;2.58;2.13;;;9.60;84.70;;;;;;4949088;28;20576;-75
2022/12/06 09:06:37;;;;;;;1.52;1.42;;;9.60;84.90;;;;;;4949575;28;20198;-76
2022/12/06 09:09:03;;;;;;;1.95;1.83;;;9.60;85.30;;;;;;4947691;28;20178;-75
2022/12/06 09:11:29;;;;;;;2.88;1.45;;;9.70;85.50;;;;;;4951233;28;20906;-75
2022/12/06 09:13:54;;;;;;;2.05;1.98;;;9.70;85.80;;;;;;4936914;28;21923;-75
2022/12/06 09:16:22;;;;;;;2.25;2.15;;;9.80;85.80;;;;;;4951832;28;21021;-75
2022/12/06 09:18:50;;;;;;;2.95;1.83;;;9.90;85.20;;;;;;4952398;28;20889;-75
2022/12/06 09:21:22;;;;;;;1.85;1.73;;;9.90;85.40;;;;;;4950804;28;20185;-74
2022/12/06 09:23:48;;;;;;;1.17;1.08;;;10.00;85.00;;;;;;4949532;28;20558;-74
2022/12/06 09:26:14;;;;;;;6.95;1.95;;;10.10;85.40;;;;;;4949912;28;20196;-76
2022/12/06 09:28:43;;;;;;;4.28;2.00;;;10.20;84.70;;;;;;4950685;28;20956;-75
2022/12/06 09:31:09;;;;;;;4.72;2.03;;;10.20;85.20;;;;;;4949543;28;20214;-75
2022/12/06 09:33:36;;;;;;;5.10;2.47;;;10.30;84.90;;;;;;4945362;28;20260;-74
2022/12/06 09:36:29;;;;;;;13.60;2.97;;;10.40;83.60;;;;;;4951977;28;20214;-75
2022/12/06 09:39:09;;;;;;;2.35;2.22;;;10.40;82.40;;;;;;4869136;29;20198;-74
2022/12/06 09:41:56;;;;;;;6.07;2.05;;;10.40;81.70;;;;;;4867350;29;20907;-74
2022/12/06 09:44:34;;;;;;;2.33;2.15;;;10.40;81.60;;;;;;4866965;29;21025;-75
2022/12/06 09:47:13;;;;;;;6.43;2.78;;;10.30;81.10;;;;;;4868217;29;20198;-75
2022/12/06 09:50:07;;;;;;;2.60;2.15;;;10.20;81.80;;;;;;4868769;29;20995;-74
2022/12/06 09:53:14;;;;;;;3.80;2.72;;;10.10;81.50;;;;;;4867121;29;20269;-75
2022/12/06 09:55:57;;;;;;;2.70;2.10;;;10.10;81.70;;;;;;4829431;29;20721;-75
2022/12/06 09:59:07;;;;;;;2.67;2.08;;;10.10;81.50;;;;;;4830489;29;20270;-74
2022/12/06 10:02:00;;;;;;;5.32;2.15;;;10.10;81.10;;;;;;4831313;29;21697;-75
2022/12/06 10:04:50;;;;;;;1.30;1.30;;;10.00;81.00;;;;;;4829853;29;20198;-75
2022/12/06 10:07:40;;;;;;;4.50;2.65;;;9.90;81.40;;;;;;4834740;29;20292;-75
2022/12/06 10:10:14;;;;;;;2.35;2.03;;;9.90;82.20;;;;;;4830941;29;20647;-74
2022/12/06 10:12:51;;;;;;;2.55;2.35;;;9.90;81.90;;;;;;4832922;29;20229;-75
2022/12/06 10:15:19;;;;;;;5.10;2.58;;;9.90;82.00;;;;;;4846507;29;20291;-76
2022/12/06 10:18:06;;;;;;;3.80;2.28;;;9.70;82.10;;;;;;4884718;29;20224;-75
2022/12/06 10:20:47;;;;;;;5.22;2.53;;;9.80;82.10;;;;;;4886776;29;20228;-75
2022/12/06 10:23:37;;;;;;;3.22;2.08;;;9.80;82.70;;;;;;4886642;29;20185;-76
2022/12/06 10:26:28;;;;;;;2.60;2.40;;;9.90;82.00;;;;;;4891805;29;20204;-75
2022/12/06 10:28:59;;;;;;;1.85;1.75;;;10.00;82.00;;;;;;4889935;29;20188;-75
2022/12/06 10:31:56;;;;;;;3.13;2.35;;;10.00;82.30;;;;;;4892127;29;20193;-75
2022/12/06 10:34:44;;;;;;;3.25;2.92;;;10.10;82.90;;;;;;4933634;28;21177;-75
2022/12/06 10:37:36;;;;;;;3.25;1.90;;;10.20;82.40;;;;;;4947424;28;20199;-75
2022/12/06 10:40:02;;;;;;;2.47;2.10;;;10.30;81.60;;;;;;4952386;28;20220;-74
2022/12/06 10:42:28;;;;;;;2.50;2.10;;;10.30;82.40;;;;;;4950994;28;20697;-75
2022/12/06 10:48:07;;;;;;;2.80;2.22;;;10.50;83.00;;;;;;4950925;28;20194;-75
2022/12/06 10:50:35;;;;;;;2.72;2.15;;;10.60;82.50;;;;;;4932357;28;20677;-74
2022/12/06 10:53:11;;;;;;;1.98;1.88;;;10.70;82.10;;;;;;4951700;28;20939;-76
2022/12/06 10:55:52;;;;;;;1.92;1.83;;;10.80;81.50;;;;;;4952315;28;20182;-75
2022/12/06 10:58:41;;;;;;;2.17;2.08;;;10.80;81.30;;;;;;4948799;28;20269;-76
2022/12/06 11:01:18;;;;;;;2.92;2.60;;;10.80;81.80;;;;;;4950870;28;20197;-75
2022/12/06 11:04:07;;;;;;;2.05;1.95;;;10.80;82.20;;;;;;4949694;28;20194;-75
2022/12/06 11:06:44;;;;;;;2.92;2.65;;;10.90;82.60;;;;;;4952862;28;20200;-75
2022/12/06 11:09:16;;;;;;;5.65;2.03;;;11.00;82.30;;;;;;4934364;28;20196;-76
2022/12/06 11:11:43;;;;;;;2.45;2.28;;;11.10;82.00;;;;;;4954152;28;20190;-76
2022/12/06 11:14:23;;;;;;;3.15;2.88;;;11.30;80.90;;;;;;4958317;28;20675;-75
2022/12/06 11:17:01;;;;;;;5.72;2.97;;;11.40;79.90;;;;;;4953233;28;20828;-75
2022/12/06 11:19:38;;;;;;;2.17;2.08;;;11.50;80.30;;;;;;4950819;28;20187;-74
2022/12/06 11:22:16;;;;;;;5.80;3.00;;;11.60;80.50;;;;;;4952267;28;20174;-75
2022/12/06 11:25:01;;;;;;;5.25;3.50;;;11.70;79.80;;;;;;4957679;28;20190;-74
2022/12/06 11:27:33;;;;;;;2.88;2.67;;;11.80;78.60;;;;;;4955161;28;20719;-75
2022/12/06 11:30:01;;;;;;;3.00;2.63;;;11.80;78.60;;;;;;4938724;28;20301;-74
2022/12/06 11:32:27;;;;;;;2.60;2.50;;;11.70;78.90;;;;;;4955200;28;20244;-75
2022/12/06 11:34:56;;;;;;;2.72;2.53;;;11.80;79.70;;;;;;4953870;28;20174;-75
2022/12/06 11:37:28;;;;;;;3.30;3.00;;;11.80;79.70;;;;;;4949294;28;20226;-78
2022/12/06 11:40:04;;;;;;;6.22;2.53;;;12.10;80.60;;;;;;4960043;28;20277;-73
2022/12/06 11:42:30;;;;;;;2.10;1.95;;;12.40;79.90;;;;;;4951474;28;20193;-74
2022/12/06 11:45:05;;;;;;;2.33;2.22;;;12.60;78.70;;;;;;4952943;28;20191;-76
2022/12/06 11:47:31;;;;;;;4.25;2.63;;;12.90;76.20;;;;;;4953121;28;20549;-75
2022/12/06 11:49:57;;;;;;;2.90;2.55;;;12.90;76.90;;;;;;4955908;28;21124;-77
2022/12/06 11:52:36;;;;;;;2.65;2.40;;;13.10;76.20;;;;;;4955745;28;20185;-75
2022/12/06 11:55:34;;;;;;;2.55;2.35;;;13.20;76.30;;;;;;4952174;28;20641;-76
2022/12/06 11:58:26;;;;;;;4.95;2.50;;;13.10;76.20;;;;;;4948717;28;20218;-75
2022/12/06 12:01:00;;;;;;;2.80;2.60;;;13.20;77.10;;;;;;4952637;28;20186;-75
2022/12/06 12:03:32;;;;;;;6.53;2.42;;;13.20;77.70;;;;;;4955624;28;20186;-75
2022/12/06 12:06:27;;;;;;;3.40;3.08;;;13.40;77.00;;;;;;4950299;28;20200;-75
2022/12/06 12:08:57;;;;;;;2.83;2.53;;;13.50;76.00;;;;;;4886396;29;20201;-75
2022/12/06 12:11:26;;;;;;;4.63;3.15;;;13.50;75.80;;;;;;4883825;29;20240;-75
2022/12/06 12:13:58;;;;;;;6.30;3.42;;;13.50;75.10;;;;;;4886426;29;20288;-75
2022/12/06 12:16:31;;;;;;;3.88;2.83;;;13.50;75.20;;;;;;4887303;29;20204;-75
2022/12/06 12:19:01;;;;;;;2.92;2.72;;;13.60;74.90;;;;;;4884829;29;20978;-75
2022/12/06 12:21:38;;;;;;;6.63;2.88;;;13.70;74.80;;;;;;4884219;29;20765;-75
2022/12/06 12:24:25;;;;;;;3.00;2.80;;;13.90;74.50;;;;;;4884261;29;20185;-75
2022/12/06 12:26:50;;;;;;;3.97;3.15;;;14.10;72.70;;;;;;4882626;29;20201;-75
2022/12/06 12:29:19;;;;;;;3.47;3.10;;;14.40;73.90;;;;;;4884448;29;20207;-75
2022/12/06 12:31:58;;;;;;;3.53;3.15;;;14.50;73.70;;;;;;4882655;29;20197;-75
2022/12/06 12:34:31;;;;;;;5.28;3.30;;;14.90;73.60;;;;;;4882674;29;20876;-74
2022/12/06 12:37:02;;;;;;;5.13;3.22;;;15.20;72.30;;;;;;4884793;29;20221;-74
2022/12/06 12:39:31;;;;;;;4.85;2.72;;;15.40;70.10;;;;;;4882750;29;20707;-74
2022/12/06 12:41:57;;;;;;;2.97;2.65;;;15.50;71.00;;;;;;4882738;29;20314;-75
2022/12/06 12:44:35;;;;;;;3.40;2.85;;;15.50;71.30;;;;;;4893130;28;20263;-74
2022/12/06 12:47:23;;;;;;;3.35;3.15;;;15.70;69.70;;;;;;4951417;28;20202;-74
2022/12/06 12:50:17;;;;;;;3.17;2.97;;;15.70;69.80;;;;;;4946972;28;20199;-75
2022/12/06 12:52:43;;;;;;;2.92;2.70;;;15.70;70.30;;;;;;4947535;28;20316;-75
2022/12/06 12:55:11;;;;;;;4.65;3.65;;;15.70;69.00;;;;;;4952091;28;20265;-75
2022/12/06 12:57:37;;;;;;;2.38;2.20;;;15.70;70.40;;;;;;4952256;28;20189;-75
2022/12/06 13:00:04;;;;;;;5.13;2.85;;;15.70;70.10;;;;;;4946553;28;20179;-74
2022/12/06 13:02:33;;;;;;;3.00;2.78;;;15.70;70.10;;;;;;4947941;28;20186;-75
2022/12/06 13:05:17;;;;;;;3.30;3.00;;;15.80;70.80;;;;;;4953892;28;20174;-75
2022/12/06 13:07:45;;;;;;;4.47;3.38;;;15.70;70.30;;;;;;4954962;28;20203;-74
2022/12/06 13:10:16;;;;;;;4.68;3.60;;;15.60;68.90;;;;;;4951042;28;20716;-74
2022/12/06 13:12:54;;;;;;;3.00;2.80;;;15.10;69.40;;;;;;4951963;28;20314;-74
2022/12/06 13:15:46;;;;;;;3.08;2.85;;;15.10;70.10;;;;;;4951692;28;20204;-74
2022/12/06 13:18:36;;;;;;;6.00;3.38;;;14.70;69.20;;;;;;4908082;29;20200;-74
2022/12/06 13:21:17;;;;;;;3.08;2.45;;;14.30;69.60;;;;;;4911550;29;20189;-76
2022/12/06 13:23:44;;;;;;;3.38;3.08;;;13.70;71.30;;;;;;4908674;29;20196;-75
2022/12/06 13:26:21;;;;;;;3.13;2.83;;;13.50;72.20;;;;;;4906505;29;20377;-75
2022/12/06 13:28:51;;;;;;;3.70;3.40;;;13.40;72.40;;;;;;4909968;29;20753;-74
2022/12/06 13:31:21;;;;;;;6.45;3.30;;;13.40;73.60;;;;;;4885480;29;20188;-76
2022/12/06 13:33:52;;;;;;;3.00;2.80;;;13.40;73.30;;;;;;4905191;29;20239;-74
2022/12/06 13:36:19;;;;;;;6.03;2.70;;;13.40;73.10;;;;;;4910649;29;20379;-75
2022/12/06 13:38:45;;;;;;;4.72;2.95;;;13.50;73.90;;;;;;4907316;29;20188;-75